createdAt,value
2019-03-23T00:02:08.495Z,10.60
2019-03-23T00:04:37.280Z,10.70
2019-03-23T00:07:06.173Z,10.80
2019-03-23T00:09:34.955Z,10.90
2019-03-23T00:12:03.731Z,10.90
2019-03-23T00:14:32.534Z,10.80
2019-03-23T00:17:01.686Z,10.80
2019-03-23T00:19:30.519Z,10.80
2019-03-23T00:21:59.356Z,10.70
2019-03-23T00:24:28.139Z,10.90
2019-03-23T00:26:57.249Z,10.90
2019-03-23T00:29:26.148Z,11.10
2019-03-23T00:31:54.937Z,10.90
2019-03-23T00:34:23.727Z,10.90
2019-03-23T00:36:52.598Z,10.90
2019-03-23T00:39:21.806Z,11.00
2019-03-23T00:41:50.604Z,11.10
2019-03-23T00:44:19.476Z,11.10
2019-03-23T00:46:48.338Z,11.20
2019-03-23T00:49:17.180Z,11.30
2019-03-23T00:51:46.027Z,11.30
2019-03-23T00:54:15.167Z,11.40
2019-03-23T00:56:43.939Z,11.30
2019-03-23T00:59:12.747Z,11.30
2019-03-23T01:01:41.542Z,11.20
2019-03-23T01:04:10.395Z,11.20
2019-03-23T01:06:39.219Z,11.20
2019-03-23T01:09:08.299Z,11.30
2019-03-23T01:11:37.083Z,11.30
2019-03-23T01:14:05.902Z,11.40
2019-03-23T01:16:35.087Z,11.50
2019-03-23T01:19:03.862Z,11.60
2019-03-23T01:21:32.656Z,11.60
2019-03-23T01:24:01.448Z,11.50
2019-03-23T01:26:30.215Z,11.70
2019-03-23T01:28:59.349Z,11.70
2019-03-23T01:31:28.203Z,11.60
2019-03-23T01:33:56.993Z,11.60
2019-03-23T01:36:25.800Z,11.70
2019-03-23T01:38:54.576Z,11.80
2019-03-23T01:41:23.374Z,11.80
2019-03-23T01:43:52.168Z,11.80
2019-03-23T01:46:21.289Z,11.80
2019-03-23T01:48:50.483Z,11.90
2019-03-23T01:51:19.297Z,11.80
2019-03-23T01:53:48.086Z,11.90
2019-03-23T01:56:16.876Z,11.90
2019-03-23T01:58:45.679Z,12.00
2019-03-23T02:01:14.523Z,12.10
2019-03-23T02:03:43.315Z,11.90
2019-03-23T02:06:12.120Z,11.70
2019-03-23T02:08:41.210Z,11.70
2019-03-23T02:11:09.989Z,11.60
2019-03-23T02:13:38.808Z,11.70
2019-03-23T02:16:07.658Z,11.80
2019-03-23T02:18:36.450Z,11.70
2019-03-23T02:21:05.269Z,11.80
2019-03-23T02:23:34.051Z,11.60
2019-03-23T02:26:02.835Z,11.50
2019-03-23T02:28:31.709Z,11.50
2019-03-23T02:31:00.759Z,11.50
2019-03-23T02:33:29.931Z,11.40
2019-03-23T02:35:58.756Z,11.40
2019-03-23T02:38:27.560Z,11.40
2019-03-23T02:40:56.406Z,11.30
2019-03-23T02:43:25.235Z,11.20
2019-03-23T02:45:54.009Z,11.10
2019-03-23T02:48:22.806Z,11.00
2019-03-23T02:50:51.683Z,11.00
2019-03-23T02:53:20.487Z,10.90
2019-03-23T02:55:50.076Z,10.90
2019-03-23T02:58:18.955Z,11.00
2019-03-23T03:00:47.807Z,11.00
2019-03-23T03:03:16.597Z,11.00
2019-03-23T03:05:45.746Z,11.10
2019-03-23T03:08:14.527Z,11.20
2019-03-23T03:10:43.378Z,11.30
2019-03-23T03:13:12.184Z,11.50
2019-03-23T03:15:41.058Z,11.50
2019-03-23T03:18:09.930Z,11.50
2019-03-23T03:20:38.755Z,11.60
2019-03-23T03:23:07.552Z,11.70
2019-03-23T03:25:36.467Z,11.70
2019-03-23T03:28:05.288Z,11.60
2019-03-23T03:30:34.087Z,11.70
2019-03-23T03:33:02.877Z,11.80
2019-03-23T03:35:31.751Z,11.90
2019-03-23T03:38:00.820Z,11.90
2019-03-23T03:40:29.602Z,11.90
2019-03-23T03:42:58.790Z,12.10
2019-03-23T03:45:28.251Z,12.30
2019-03-23T03:47:57.080Z,12.20
2019-03-23T03:50:25.900Z,12.00
2019-03-23T03:52:54.733Z,11.90
2019-03-23T03:55:23.512Z,11.70
2019-03-23T03:57:52.320Z,11.60
2019-03-23T04:00:21.192Z,11.40
2019-03-23T04:02:49.968Z,11.40
2019-03-23T04:05:18.790Z,11.50
2019-03-23T04:07:47.650Z,11.60
2019-03-23T04:10:16.498Z,11.70
2019-03-23T04:12:45.314Z,11.70
2019-03-23T04:15:14.177Z,11.80
2019-03-23T04:17:42.971Z,11.80
2019-03-23T04:20:11.790Z,11.80
2019-03-23T04:22:40.892Z,11.60
2019-03-23T04:25:10.449Z,11.30
2019-03-23T04:27:39.367Z,10.90
2019-03-23T04:30:11.794Z,10.80
2019-03-23T04:32:40.594Z,10.90
2019-03-23T04:35:09.494Z,11.10
2019-03-23T04:37:38.293Z,11.30
2019-03-23T04:40:09.713Z,11.30
2019-03-23T04:42:38.534Z,11.10
2019-03-23T04:45:08.666Z,11.10
2019-03-23T04:47:37.608Z,11.20
2019-03-23T04:50:10.935Z,11.40
2019-03-23T04:52:39.775Z,11.50
2019-03-23T04:55:12.000Z,11.30
2019-03-23T04:57:40.818Z,11.20
2019-03-23T05:00:17.054Z,11.30
2019-03-23T05:02:45.869Z,11.50
2019-03-23T05:05:14.727Z,11.70
2019-03-23T05:07:43.505Z,11.80
2019-03-23T05:10:12.385Z,11.80
2019-03-23T05:12:41.161Z,11.90
2019-03-23T05:15:09.943Z,12.10
2019-03-23T05:17:38.744Z,12.00
2019-03-23T05:20:09.978Z,11.90
2019-03-23T05:22:38.773Z,11.90
2019-03-23T05:25:09.527Z,11.80
2019-03-23T05:27:38.318Z,11.90
2019-03-23T05:30:08.033Z,12.00
2019-03-23T05:32:37.193Z,12.10
2019-03-23T05:35:06.945Z,12.00
2019-03-23T05:37:35.721Z,12.00
2019-03-23T05:40:06.545Z,12.00
2019-03-23T05:42:35.771Z,11.90
2019-03-23T05:45:06.007Z,11.80
2019-03-23T05:47:34.806Z,11.60
2019-03-23T05:50:05.239Z,11.50
2019-03-23T05:52:34.036Z,11.60
2019-03-23T05:55:03.008Z,11.70
2019-03-23T05:57:31.793Z,11.80
2019-03-23T06:00:00.637Z,11.80
2019-03-23T06:02:29.439Z,11.80
2019-03-23T06:04:58.219Z,11.70
2019-03-23T06:07:27.012Z,11.50
2019-03-23T06:09:55.891Z,11.70
2019-03-23T06:12:24.738Z,11.70
2019-03-23T06:14:53.587Z,11.70
2019-03-23T06:17:22.405Z,11.70
2019-03-23T06:19:51.246Z,11.20
2019-03-23T06:22:20.024Z,10.80
2019-03-23T06:24:48.844Z,10.70
2019-03-23T06:27:17.638Z,10.70
2019-03-23T06:29:46.517Z,10.80
2019-03-23T06:32:15.317Z,10.80
2019-03-23T06:34:44.121Z,10.80
2019-03-23T06:37:12.940Z,11.00
2019-03-23T06:39:41.803Z,11.20
2019-03-23T06:42:10.667Z,11.20
2019-03-23T06:44:39.529Z,11.40
2019-03-23T06:47:08.359Z,11.70
2019-03-23T06:49:37.263Z,11.80
2019-03-23T06:52:06.084Z,11.80
2019-03-23T06:54:34.904Z,11.90
2019-03-23T06:57:03.761Z,11.90
2019-03-23T06:59:32.549Z,12.00
2019-03-23T07:02:01.365Z,12.00
2019-03-23T07:04:30.155Z,12.00
2019-03-23T07:06:59.023Z,11.90
2019-03-23T07:09:27.931Z,11.90
2019-03-23T07:11:56.756Z,12.10
2019-03-23T07:14:25.561Z,12.40
2019-03-23T07:16:54.665Z,12.60
2019-03-23T07:19:23.448Z,12.50
2019-03-23T07:21:52.576Z,12.40
2019-03-23T07:24:21.504Z,12.50
2019-03-23T07:26:50.273Z,12.60
2019-03-23T07:29:19.082Z,12.60
2019-03-23T07:31:47.963Z,12.70
2019-03-23T07:34:17.032Z,12.80
2019-03-23T07:36:45.880Z,12.70
2019-03-23T07:39:14.751Z,12.70
2019-03-23T07:41:43.536Z,12.90
2019-03-23T07:44:12.324Z,12.80
2019-03-23T07:46:41.146Z,12.90
2019-03-23T07:49:10.271Z,13.00
2019-03-23T07:51:39.051Z,13.10
2019-03-23T07:54:07.935Z,13.10
2019-03-23T07:56:37.057Z,13.20
2019-03-23T07:59:06.254Z,12.90
2019-03-23T08:01:35.350Z,13.00
2019-03-23T08:04:04.145Z,13.10
2019-03-23T08:06:32.933Z,12.90
2019-03-23T08:09:01.744Z,13.00
2019-03-23T08:11:30.538Z,13.20
2019-03-23T08:13:59.731Z,13.10
2019-03-23T08:16:28.621Z,13.00
2019-03-23T08:18:57.467Z,12.70
2019-03-23T08:21:26.318Z,12.70
2019-03-23T08:23:55.132Z,12.90
2019-03-23T08:26:23.989Z,13.10
2019-03-23T08:28:52.846Z,13.30
2019-03-23T08:31:21.736Z,13.30
2019-03-23T08:33:52.079Z,13.20
2019-03-23T08:36:21.192Z,13.20
2019-03-23T08:38:51.703Z,13.20
2019-03-23T08:41:20.721Z,13.10
2019-03-23T08:43:49.572Z,13.20
2019-03-23T08:46:18.398Z,13.30
2019-03-23T08:48:47.245Z,13.40
2019-03-23T08:51:16.367Z,13.40
2019-03-23T08:53:45.187Z,13.30
2019-03-23T08:56:13.971Z,13.50
2019-03-23T08:58:41.886Z,13.60
2019-03-23T09:01:10.731Z,13.40
2019-03-23T09:03:39.613Z,13.30
2019-03-23T09:06:08.466Z,13.20
2019-03-23T09:08:37.269Z,13.20
2019-03-23T09:11:06.705Z,13.00
2019-03-23T09:13:40.507Z,13.00
2019-03-23T09:16:06.524Z,13.00
2019-03-23T09:18:35.298Z,13.10
2019-03-23T09:21:04.088Z,13.00
2019-03-23T09:23:32.962Z,13.00
2019-03-23T09:26:01.757Z,13.00
2019-03-23T09:28:30.611Z,13.00
2019-03-23T09:30:59.407Z,13.20
2019-03-23T09:33:28.191Z,13.30
2019-03-23T09:35:56.976Z,13.40
2019-03-23T09:38:25.790Z,13.40
2019-03-23T09:40:54.564Z,13.30
2019-03-23T09:43:23.364Z,13.20
2019-03-23T09:45:52.178Z,13.20
2019-03-23T09:48:20.983Z,13.20
2019-03-23T09:50:49.762Z,13.20
2019-03-23T09:53:18.573Z,13.00
2019-03-23T09:55:47.358Z,13.00
2019-03-23T09:58:16.139Z,13.00
2019-03-23T10:00:44.948Z,12.90
2019-03-23T10:03:13.811Z,13.00
2019-03-23T10:05:42.603Z,13.10
2019-03-23T10:08:11.473Z,13.20
2019-03-23T10:10:40.256Z,13.20
2019-03-23T10:13:09.109Z,13.30
2019-03-23T10:15:37.909Z,13.30
2019-03-23T10:18:06.686Z,13.40
2019-03-23T10:20:35.497Z,13.30
2019-03-23T10:23:04.367Z,13.20
2019-03-23T10:25:33.496Z,13.10
2019-03-23T10:28:02.354Z,12.90
2019-03-23T10:30:31.231Z,13.00
2019-03-23T10:33:00.016Z,13.10
2019-03-23T10:35:28.808Z,13.10
2019-03-23T10:37:57.606Z,13.10
2019-03-23T10:40:32.325Z,13.20
2019-03-23T10:42:56.881Z,13.30
2019-03-23T10:45:25.755Z,13.10
2019-03-23T10:50:23.513Z,13.30
2019-03-23T10:52:52.380Z,13.10
2019-03-23T10:55:21.169Z,13.20
2019-03-23T10:57:50.223Z,13.30
2019-03-23T11:00:19.096Z,13.40
2019-03-23T11:02:47.881Z,13.40
2019-03-23T11:05:17.056Z,13.40
2019-03-23T11:07:45.893Z,13.50
2019-03-23T11:10:14.756Z,13.50
2019-03-23T11:12:43.575Z,13.50
2019-03-23T11:15:12.464Z,13.80
2019-03-23T11:17:41.329Z,13.80
2019-03-23T11:20:12.008Z,13.80
2019-03-23T11:22:40.820Z,13.70
2019-03-23T11:25:09.682Z,13.60
2019-03-23T11:27:38.472Z,13.60
2019-03-23T11:30:09.823Z,13.80
2019-03-23T11:32:38.670Z,13.90
2019-03-23T11:35:08.172Z,14.20
2019-03-23T11:37:37.215Z,14.30
2019-03-23T11:40:07.992Z,14.50
2019-03-23T11:42:36.785Z,14.50
2019-03-23T11:45:07.541Z,14.40
2019-03-23T11:47:36.320Z,14.40
2019-03-23T11:50:05.748Z,14.20
2019-03-23T11:52:34.575Z,14.00
2019-03-23T11:55:03.716Z,14.40
2019-03-23T11:57:32.508Z,14.50
2019-03-23T12:00:01.388Z,14.70
2019-03-23T12:02:30.256Z,15.00
2019-03-23T12:04:59.048Z,14.90
2019-03-23T12:07:27.835Z,14.70
2019-03-23T12:09:56.872Z,14.80
2019-03-23T12:12:25.660Z,15.00
2019-03-23T12:14:54.463Z,15.20
2019-03-23T12:17:23.231Z,15.10
2019-03-23T12:19:52.091Z,15.20
2019-03-23T12:22:20.978Z,15.40
2019-03-23T12:24:49.768Z,15.50
2019-03-23T12:27:18.603Z,15.60
2019-03-23T12:29:47.420Z,15.50
2019-03-23T12:32:16.199Z,14.90
2019-03-23T12:34:44.971Z,14.80
2019-03-23T12:37:13.789Z,14.60
2019-03-23T12:39:42.634Z,15.00
2019-03-23T12:42:11.410Z,15.10
2019-03-23T12:44:40.284Z,15.30
2019-03-23T12:47:09.074Z,15.40
2019-03-23T12:49:37.853Z,15.30
2019-03-23T12:52:06.654Z,15.60
2019-03-23T12:54:35.424Z,15.90
2019-03-23T12:57:04.193Z,16.10
2019-03-23T12:59:33.006Z,15.90
2019-03-23T13:02:01.784Z,15.90
2019-03-23T13:04:30.580Z,16.10
2019-03-23T13:06:59.741Z,16.30
2019-03-23T13:09:28.592Z,16.50
2019-03-23T13:11:57.361Z,16.50
2019-03-23T13:14:26.163Z,16.60
2019-03-23T13:16:55.027Z,16.50
2019-03-23T13:19:23.909Z,16.50
2019-03-23T13:21:52.719Z,16.50
2019-03-23T13:24:22.678Z,16.60
2019-03-23T13:26:51.597Z,16.50
2019-03-23T13:29:20.397Z,16.50
2019-03-23T13:31:49.178Z,16.60
2019-03-23T13:34:18.027Z,16.60
2019-03-23T13:36:46.845Z,16.60
2019-03-23T13:39:16.061Z,16.50
2019-03-23T13:41:48.058Z,16.50
2019-03-23T13:44:16.872Z,16.50
2019-03-23T13:46:45.656Z,16.40
2019-03-23T13:49:14.441Z,16.20
2019-03-23T13:51:43.326Z,16.10
2019-03-23T13:54:12.120Z,16.10
2019-03-23T13:56:41.172Z,16.30
2019-03-23T13:59:10.029Z,16.40
2019-03-23T14:01:38.859Z,16.40
2019-03-23T14:04:07.625Z,16.50
2019-03-23T14:06:36.446Z,16.30
2019-03-23T14:09:06.399Z,16.30
2019-03-23T14:11:35.190Z,16.30
2019-03-23T14:14:03.998Z,16.10
2019-03-23T14:16:32.849Z,16.10
2019-03-23T14:19:01.626Z,16.00
2019-03-23T14:21:30.436Z,16.10
2019-03-23T14:23:59.307Z,16.30
2019-03-23T14:26:28.089Z,16.30
2019-03-23T14:28:56.909Z,16.40
2019-03-23T14:31:25.817Z,16.30
2019-03-23T14:33:54.588Z,16.00
2019-03-23T14:36:23.763Z,15.60
2019-03-23T14:38:52.552Z,15.60
2019-03-23T14:41:21.390Z,15.90
2019-03-23T14:43:50.203Z,16.20
2019-03-23T14:46:19.062Z,16.30
2019-03-23T14:48:47.908Z,16.30
2019-03-23T14:51:16.797Z,16.30
2019-03-23T14:53:45.577Z,16.30
2019-03-23T14:56:14.415Z,16.00
2019-03-23T14:58:43.215Z,15.90
2019-03-23T15:01:11.993Z,15.80
2019-03-23T15:03:40.773Z,15.80
2019-03-23T15:06:09.592Z,15.70
2019-03-23T15:08:38.506Z,15.70
2019-03-23T15:11:07.363Z,15.60
2019-03-23T15:13:36.521Z,15.60
2019-03-23T15:16:05.296Z,15.50
2019-03-23T15:18:34.090Z,15.20
2019-03-23T15:21:02.965Z,15.30
2019-03-23T15:23:31.741Z,15.10
2019-03-23T15:26:00.532Z,15.00
2019-03-23T15:28:29.410Z,14.90
2019-03-23T15:30:59.060Z,14.90
2019-03-23T15:33:27.878Z,15.00
2019-03-23T15:35:56.680Z,15.10
2019-03-23T15:38:25.506Z,15.10
2019-03-23T15:40:54.372Z,15.00
2019-03-23T15:43:23.253Z,15.00
2019-03-23T15:45:52.044Z,15.00
2019-03-23T15:48:20.818Z,15.00
2019-03-23T15:50:49.716Z,15.10
2019-03-23T15:53:18.844Z,15.20
2019-03-23T15:55:47.994Z,15.10
2019-03-23T15:58:16.817Z,15.00
2019-03-23T16:00:45.673Z,14.90
2019-03-23T16:03:14.455Z,14.90
2019-03-23T16:05:43.272Z,14.70
2019-03-23T16:08:12.044Z,14.50
2019-03-23T16:10:40.850Z,14.50
2019-03-23T16:13:09.770Z,14.30
2019-03-23T16:15:38.628Z,14.10
2019-03-23T16:18:07.488Z,14.10
2019-03-23T16:20:36.302Z,14.00
2019-03-23T16:23:05.096Z,13.90
2019-03-23T16:25:33.878Z,13.80
2019-03-23T16:28:02.687Z,13.90
2019-03-23T16:30:32.336Z,13.90
2019-03-23T16:33:01.110Z,13.90
2019-03-23T16:35:29.918Z,13.90
2019-03-23T16:37:58.698Z,13.90
2019-03-23T16:40:27.547Z,13.80
2019-03-23T16:42:56.637Z,13.80
2019-03-23T16:45:25.427Z,13.70
2019-03-23T16:47:54.191Z,13.70
2019-03-23T16:50:22.993Z,13.70
2019-03-23T16:52:51.845Z,13.70
2019-03-23T16:55:20.614Z,13.70
2019-03-23T16:57:49.470Z,13.60
2019-03-23T17:00:21.560Z,13.60
2019-03-23T17:02:50.420Z,13.60
2019-03-23T17:05:19.305Z,13.50
2019-03-23T17:07:48.103Z,13.50
2019-03-23T17:10:16.945Z,13.40
2019-03-23T17:12:55.090Z,13.40
2019-03-23T17:15:16.234Z,13.30
2019-03-23T17:17:45.028Z,13.20
2019-03-23T17:20:13.826Z,13.10
2019-03-23T17:22:43.027Z,13.10
2019-03-23T17:25:11.805Z,13.00
2019-03-23T17:27:40.608Z,12.90
2019-03-23T17:30:09.377Z,12.90
2019-03-23T17:32:38.730Z,13.00
2019-03-23T17:35:07.619Z,12.90
2019-03-23T17:37:36.463Z,12.80
2019-03-23T17:40:06.963Z,12.80
2019-03-23T17:42:35.801Z,12.60
2019-03-23T17:45:07.148Z,12.60
2019-03-23T17:47:35.952Z,12.60
2019-03-23T17:50:05.412Z,12.50
2019-03-23T17:52:34.206Z,12.50
2019-03-23T17:55:03.457Z,12.40
2019-03-23T17:57:32.276Z,12.30
2019-03-23T18:00:01.152Z,12.30
2019-03-23T18:02:30.311Z,12.40
2019-03-23T18:04:59.126Z,12.40
2019-03-23T18:07:27.915Z,12.50
2019-03-23T18:09:56.779Z,12.40
2019-03-23T18:12:25.576Z,12.40
2019-03-23T18:14:54.358Z,12.50
2019-03-23T18:17:23.140Z,12.40
2019-03-23T18:19:52.008Z,12.40
2019-03-23T18:22:20.791Z,12.50
2019-03-23T18:24:57.153Z,12.40
2019-03-23T18:27:25.235Z,12.40
2019-03-23T18:29:54.001Z,12.30
2019-03-23T18:32:22.795Z,12.10
2019-03-23T18:34:51.665Z,12.00
2019-03-23T18:37:20.459Z,12.00
2019-03-23T18:39:49.301Z,11.90
2019-03-23T18:42:18.426Z,11.90
2019-03-23T18:44:47.248Z,12.00
2019-03-23T18:47:16.106Z,12.00
2019-03-23T18:49:44.918Z,12.00
2019-03-23T18:52:13.690Z,12.10
2019-03-23T18:54:42.498Z,12.10
2019-03-23T18:57:11.308Z,12.10
2019-03-23T18:59:40.101Z,12.10
2019-03-23T19:02:08.877Z,12.00
2019-03-23T19:04:37.693Z,12.00
2019-03-23T19:07:06.529Z,12.00
2019-03-23T19:09:35.318Z,12.10
2019-03-23T19:12:04.210Z,12.20
2019-03-23T19:14:32.992Z,12.10
2019-03-23T19:17:01.775Z,12.20
2019-03-23T19:19:30.654Z,12.20
2019-03-23T19:21:59.429Z,12.30
2019-03-23T19:24:28.211Z,12.30
2019-03-23T19:26:57.040Z,12.30
2019-03-23T19:29:27.644Z,12.30
2019-03-23T19:31:56.285Z,12.30
2019-03-23T19:34:25.080Z,12.40
2019-03-23T19:36:53.856Z,12.40
2019-03-23T19:39:22.646Z,12.50
2019-03-23T19:41:51.455Z,12.50
2019-03-23T19:44:20.309Z,12.60
2019-03-23T19:46:49.092Z,12.60
2019-03-23T19:49:17.982Z,12.80
2019-03-23T19:51:46.781Z,12.90
2019-03-23T19:54:15.901Z,12.80
2019-03-23T19:56:44.805Z,12.90
2019-03-23T19:59:13.653Z,12.70
2019-03-23T20:01:42.449Z,12.50
2019-03-23T20:04:11.254Z,12.40
2019-03-23T20:06:40.041Z,12.20
2019-03-23T20:09:09.758Z,12.10
2019-03-23T20:11:38.861Z,12.10
2019-03-23T20:14:08.155Z,12.10
2019-03-23T20:16:36.931Z,12.10
2019-03-23T20:19:05.830Z,12.10
2019-03-23T20:21:34.691Z,12.00
2019-03-23T20:24:03.825Z,12.00
2019-03-23T20:26:32.634Z,12.00
2019-03-23T20:29:01.473Z,11.90
2019-03-23T20:31:30.252Z,11.80
2019-03-23T20:33:59.166Z,11.80
2019-03-23T20:36:28.044Z,11.80
2019-03-23T20:38:56.904Z,11.80
2019-03-23T20:41:25.715Z,11.80
2019-03-23T20:43:54.504Z,11.80
2019-03-23T20:46:23.270Z,11.80
2019-03-23T20:48:52.450Z,11.80
2019-03-23T20:51:21.252Z,11.60
2019-03-23T20:53:50.017Z,11.50
2019-03-23T20:56:18.833Z,11.50
2019-03-23T20:58:47.675Z,11.50
2019-03-23T21:01:16.461Z,11.50
2019-03-23T21:03:45.348Z,11.50
2019-03-23T21:06:14.176Z,11.50
2019-03-23T21:08:42.995Z,11.50
2019-03-23T21:11:11.800Z,11.50
2019-03-23T21:13:40.650Z,11.50
2019-03-23T21:16:09.424Z,11.50
2019-03-23T21:18:38.241Z,11.50
2019-03-23T21:21:07.016Z,11.50
2019-03-23T21:23:36.217Z,11.50
2019-03-23T21:26:05.054Z,11.50
2019-03-23T21:28:34.198Z,11.40
2019-03-23T21:31:02.979Z,11.40
2019-03-23T21:33:33.512Z,11.30
2019-03-23T21:36:02.346Z,11.30
2019-03-23T21:38:31.221Z,11.40
2019-03-23T21:41:00.458Z,11.30
2019-03-23T21:43:29.233Z,11.30
2019-03-23T21:45:58.071Z,11.30
2019-03-23T21:48:26.876Z,11.40
2019-03-23T21:50:55.683Z,11.40
2019-03-23T21:53:24.533Z,11.30
2019-03-23T21:55:53.363Z,11.20
2019-03-23T21:58:22.218Z,11.20
2019-03-23T22:00:50.993Z,11.20
2019-03-23T22:03:19.801Z,11.20
2019-03-23T22:05:48.581Z,11.20
2019-03-23T22:08:17.438Z,11.20
2019-03-23T22:10:46.319Z,11.10
2019-03-23T22:13:15.120Z,11.10
2019-03-23T22:15:43.994Z,11.00
2019-03-23T22:18:12.875Z,10.80
2019-03-23T22:20:41.668Z,10.80
2019-03-23T22:23:10.522Z,10.70
2019-03-23T22:25:39.337Z,10.70
2019-03-23T22:28:08.446Z,10.70
2019-03-23T22:30:37.242Z,10.60
2019-03-23T22:33:06.048Z,10.60
2019-03-23T22:35:34.887Z,10.50
2019-03-23T22:38:03.665Z,10.50
2019-03-23T22:40:32.492Z,10.50
2019-03-23T22:43:01.278Z,10.60
2019-03-23T22:45:30.053Z,10.50
2019-03-23T22:47:58.868Z,10.40
2019-03-23T22:50:27.734Z,10.40
2019-03-23T22:52:56.519Z,10.40
2019-03-23T22:55:25.653Z,10.50
2019-03-23T22:57:54.756Z,10.40
2019-03-23T23:00:28.274Z,10.30
2019-03-23T23:02:57.076Z,10.30
2019-03-23T23:05:26.237Z,10.20
2019-03-23T23:07:55.023Z,10.20
2019-03-23T23:10:23.823Z,10.20
2019-03-23T23:12:52.606Z,10.20
2019-03-23T23:15:21.475Z,10.20
2019-03-23T23:17:50.585Z,10.00
2019-03-23T23:20:19.361Z,9.90
2019-03-23T23:22:48.145Z,9.90
2019-03-23T23:25:17.015Z,9.90
2019-03-23T23:27:45.868Z,9.90
2019-03-23T23:30:14.698Z,9.80
2019-03-23T23:32:43.512Z,9.80
2019-03-23T23:35:12.288Z,9.80
2019-03-23T23:37:41.059Z,9.80
2019-03-23T23:40:09.947Z,9.90
2019-03-23T23:42:38.797Z,9.80
2019-03-23T23:45:15.384Z,9.80
2019-03-23T23:47:38.415Z,9.80
2019-03-23T23:50:07.349Z,9.90
2019-03-23T23:52:36.119Z,9.80
2019-03-23T23:55:06.133Z,9.90
2019-03-23T23:57:34.899Z,9.90
